Time;durP1;ratioP1;P1;durP2;ratioP2;P2;SDS_P1;SDS_P2;PMS_P1;PMS_P2;Temp;Humidity;BMP_temperature;BMP_pressure;BME280_temperature;BME280_humidity;BME280_pressure;Samples;Min_cycle;Max_cycle;Signal;HPM_P1;HPM_P2
2022/07/29 00:00:53;;;;;;;2.13;1.63;;;16.80;51.00;;;;;;5085056;28;20443;-59
2022/07/29 00:03:20;;;;;;;5.20;1.30;;;16.80;51.00;;;;;;5088708;28;20967;-60
2022/07/29 00:05:47;;;;;;;2.60;1.80;;;16.80;51.10;;;;;;5089152;28;20451;-59
2022/07/29 00:08:15;;;;;;;2.67;1.43;;;16.90;51.20;;;;;;5080073;28;20454;-58
2022/07/29 00:10:42;;;;;;;4.83;1.50;;;16.90;51.20;;;;;;5095568;28;20442;-58
2022/07/29 00:13:10;;;;;;;6.37;1.57;;;16.90;51.30;;;;;;5087018;28;20481;-58
2022/07/29 00:15:38;;;;;;;4.20;1.40;;;16.90;51.30;;;;;;5084349;28;20475;-59
2022/07/29 00:18:06;;;;;;;1.73;1.47;;;16.90;51.30;;;;;;5081424;28;20864;-58
2022/07/29 00:20:33;;;;;;;2.73;1.40;;;16.80;51.30;;;;;;5092532;28;20518;-58
2022/07/29 00:23:00;;;;;;;2.90;1.10;;;16.90;51.40;;;;;;5079109;28;21019;-59
2022/07/29 00:25:27;;;;;;;3.20;1.33;;;16.90;51.40;;;;;;5089565;28;20957;-58
2022/07/29 00:27:55;;;;;;;4.30;1.73;;;16.90;51.40;;;;;;5090996;28;20453;-59
2022/07/29 00:30:22;;;;;;;3.30;1.87;;;16.90;51.50;;;;;;5077250;28;20537;-59
2022/07/29 00:32:51;;;;;;;1.70;1.30;;;16.90;51.60;;;;;;5081073;28;20438;-58
2022/07/29 00:38:02;;;;;;;2.30;1.37;;;16.90;51.70;;;;;;5094267;28;20502;-59
2022/07/29 00:40:30;;;;;;;3.33;1.20;;;16.80;51.70;;;;;;5086418;28;20533;-59
2022/07/29 00:42:57;;;;;;;10.00;1.60;;;16.80;51.70;;;;;;5087031;28;20449;-58
2022/07/29 00:45:24;;;;;;;2.80;1.30;;;16.80;51.80;;;;;;5077464;28;20475;-59
2022/07/29 00:47:53;;;;;;;2.53;1.47;;;16.80;51.80;;;;;;5082455;28;20450;-60
2022/07/29 00:50:20;;;;;;;3.87;2.00;;;16.80;51.90;;;;;;5083807;28;20454;-59
2022/07/29 00:52:47;;;;;;;3.43;1.50;;;16.80;52.50;;;;;;5077492;28;20442;-59
2022/07/29 00:55:16;;;;;;;3.50;1.37;;;16.80;52.00;;;;;;5088523;28;20838;-58
2022/07/29 00:57:44;;;;;;;2.00;1.50;;;16.80;52.10;;;;;;5090152;28;20990;-58
2022/07/29 01:00:14;;;;;;;3.97;1.70;;;16.80;52.20;;;;;;5081626;28;20448;-59
2022/07/29 01:02:42;;;;;;;1.90;1.40;;;16.70;52.20;;;;;;5077131;28;20957;-59
2022/07/29 01:05:13;;;;;;;2.67;1.77;;;16.70;52.30;;;;;;5087141;28;20538;-59
2022/07/29 01:07:40;;;;;;;4.50;1.87;;;16.70;52.40;;;;;;5078633;28;20470;-59
2022/07/29 01:10:11;;;;;;;3.53;1.73;;;16.70;52.50;;;;;;5094819;28;20506;-59
2022/07/29 01:12:39;;;;;;;3.30;1.27;;;16.70;52.60;;;;;;5091204;28;20518;-58
2022/07/29 01:15:08;;;;;;;4.07;1.40;;;16.70;52.70;;;;;;5089693;28;20502;-59
2022/07/29 01:17:42;;;;;;;5.67;1.90;;;16.60;52.70;;;;;;5091286;28;20466;-59
2022/07/29 01:20:17;;;;;;;3.27;1.57;;;16.60;52.80;;;;;;5076096;28;20427;-57
2022/07/29 01:23:27;;;;;;;1.43;1.23;;;16.60;52.90;;;;;;5090262;28;20438;-58
2022/07/29 01:26:11;;;;;;;4.63;1.27;;;16.50;53.00;;;;;;5070554;28;20462;-59
2022/07/29 01:29:03;;;;;;;4.50;1.43;;;16.50;53.10;;;;;;5085577;28;20436;-59
2022/07/29 01:31:39;;;;;;;5.10;1.70;;;16.50;53.20;;;;;;5075913;28;20435;-58
2022/07/29 01:34:11;;;;;;;4.30;1.87;;;16.40;53.20;;;;;;5084054;28;20449;-59
2022/07/29 01:36:44;;;;;;;2.30;1.30;;;16.40;53.40;;;;;;5075507;28;20475;-58
2022/07/29 01:39:14;;;;;;;4.33;1.43;;;16.30;53.40;;;;;;5079868;28;20445;-59
2022/07/29 01:41:50;;;;;;;2.63;1.30;;;16.30;53.60;;;;;;5092123;28;20529;-58
2022/07/29 01:44:27;;;;;;;4.80;1.67;;;16.30;53.70;;;;;;5092437;28;20438;-59
2022/07/29 01:46:58;;;;;;;4.73;1.50;;;16.30;53.80;;;;;;5095106;28;20476;-59
2022/07/29 01:49:28;;;;;;;3.43;1.67;;;16.20;53.90;;;;;;5094262;28;20786;-58
2022/07/29 01:51:59;;;;;;;4.50;1.73;;;16.20;54.00;;;;;;5095477;28;20449;-59
2022/07/29 01:54:35;;;;;;;4.10;1.80;;;16.20;54.10;;;;;;5084806;28;20838;-59
2022/07/29 01:57:05;;;;;;;3.30;1.40;;;16.10;54.10;;;;;;5088415;28;20488;-59
2022/07/29 01:59:35;;;;;;;2.87;1.63;;;16.10;54.20;;;;;;5086090;28;20439;-59
2022/07/29 02:02:03;;;;;;;4.03;1.80;;;16.10;54.40;;;;;;5087876;28;20485;-58
2022/07/29 02:04:31;;;;;;;8.70;2.07;;;16.00;54.40;;;;;;5088360;28;20447;-59
2022/07/29 02:07:02;;;;;;;1.93;1.70;;;16.00;54.50;;;;;;5094855;28;20473;-58
2022/07/29 02:09:31;;;;;;;2.80;1.50;;;16.00;54.60;;;;;;5086682;28;20462;-57
2022/07/29 02:12:00;;;;;;;2.37;1.50;;;16.00;54.70;;;;;;5086791;28;20872;-59
2022/07/29 02:14:29;;;;;;;3.27;1.70;;;15.90;54.70;;;;;;5086129;28;20924;-59
2022/07/29 02:17:00;;;;;;;1.50;1.37;;;15.90;54.90;;;;;;5091267;28;20542;-58
2022/07/29 02:19:30;;;;;;;5.10;1.53;;;15.90;55.00;;;;;;5080870;28;20530;-58
2022/07/29 02:21:59;;;;;;;2.23;1.60;;;15.80;55.10;;;;;;5095420;28;20831;-58
2022/07/29 02:24:27;;;;;;;2.87;1.90;;;15.80;55.30;;;;;;5081776;28;20443;-57
2022/07/29 02:26:57;;;;;;;4.30;2.30;;;15.70;55.30;;;;;;5091952;28;20539;-59
2022/07/29 02:29:27;;;;;;;2.47;1.90;;;15.70;55.60;;;;;;5088486;28;20938;-58
2022/07/29 02:31:58;;;;;;;3.30;1.57;;;15.70;55.80;;;;;;5075080;28;20424;-59
2022/07/29 02:34:26;;;;;;;3.10;1.40;;;15.60;55.80;;;;;;5079056;28;20447;-58
2022/07/29 02:36:56;;;;;;;2.37;1.50;;;15.60;55.90;;;;;;5094944;28;20578;-58
2022/07/29 02:39:25;;;;;;;3.20;1.80;;;15.50;56.00;;;;;;5094186;28;20521;-58
2022/07/29 02:41:57;;;;;;;3.77;1.57;;;15.50;56.20;;;;;;5108834;28;20481;-59
2022/07/29 02:44:26;;;;;;;3.90;1.50;;;15.40;56.30;;;;;;5090745;28;20469;-59
2022/07/29 02:47:05;;;;;;;3.73;1.80;;;15.40;56.50;;;;;;5097343;28;20838;-59
2022/07/29 02:49:38;;;;;;;5.57;1.60;;;15.40;56.70;;;;;;5076301;28;20629;-59
2022/07/29 02:52:09;;;;;;;3.13;1.90;;;15.40;56.80;;;;;;5054979;28;20908;-60
2022/07/29 02:54:41;;;;;;;3.53;1.80;;;15.40;56.90;;;;;;5083238;28;20530;-59
2022/07/29 02:57:16;;;;;;;4.63;2.03;;;15.40;57.00;;;;;;5082011;28;20465;-59
2022/07/29 02:59:46;;;;;;;2.20;2.00;;;15.40;57.20;;;;;;5091183;28;20437;-59
2022/07/29 03:02:16;;;;;;;4.40;1.70;;;15.40;57.20;;;;;;5083416;28;20529;-59
2022/07/29 03:04:44;;;;;;;3.00;1.80;;;15.40;57.30;;;;;;5086178;28;20427;-58
2022/07/29 03:07:14;;;;;;;5.80;1.90;;;15.40;57.30;;;;;;5094148;28;20556;-58
2022/07/29 03:09:43;;;;;;;2.63;1.50;;;15.40;57.40;;;;;;5083735;28;20457;-59
2022/07/29 03:12:12;;;;;;;4.03;1.60;;;15.40;57.40;;;;;;5087073;28;20529;-58
2022/07/29 03:14:40;;;;;;;2.20;2.00;;;15.40;57.50;;;;;;5092384;28;20530;-58
2022/07/29 03:17:08;;;;;;;3.47;1.70;;;15.40;57.60;;;;;;5080578;28;20514;-59
2022/07/29 03:19:37;;;;;;;5.23;1.77;;;15.40;57.70;;;;;;5078987;28;20500;-59
2022/07/29 03:22:05;;;;;;;5.03;1.77;;;15.40;57.80;;;;;;5089223;28;20983;-58
2022/07/29 03:24:34;;;;;;;2.77;2.47;;;15.40;57.80;;;;;;5077392;28;20443;-59
2022/07/29 03:27:02;;;;;;;3.30;2.07;;;15.40;57.90;;;;;;5077885;28;20544;-59
2022/07/29 03:29:29;;;;;;;4.60;1.63;;;15.40;58.10;;;;;;5081810;28;20933;-59
2022/07/29 03:31:57;;;;;;;5.73;1.93;;;15.40;58.20;;;;;;5088320;28;20447;-59
2022/07/29 03:34:24;;;;;;;4.73;1.90;;;15.40;58.30;;;;;;5076161;28;20475;-58
2022/07/29 03:36:52;;;;;;;3.97;2.27;;;15.30;58.40;;;;;;5081786;28;21003;-58
2022/07/29 03:39:24;;;;;;;4.70;2.27;;;15.30;58.40;;;;;;5075083;28;20946;-57
2022/07/29 03:41:56;;;;;;;7.13;2.40;;;15.30;58.60;;;;;;5084376;28;20937;-59
2022/07/29 03:44:24;;;;;;;3.63;1.83;;;15.30;58.80;;;;;;5081158;28;20971;-58
2022/07/29 03:46:54;;;;;;;5.20;2.00;;;15.30;58.90;;;;;;5086596;28;20650;-59
2022/07/29 03:49:22;;;;;;;2.47;1.77;;;15.30;59.00;;;;;;5090497;28;20450;-59
2022/07/29 03:51:49;;;;;;;8.53;2.20;;;15.30;59.00;;;;;;5073172;28;20859;-58
2022/07/29 03:54:19;;;;;;;5.87;2.60;;;15.30;59.10;;;;;;5075509;28;20539;-58
2022/07/29 03:56:50;;;;;;;3.17;1.90;;;15.30;59.20;;;;;;5093743;28;20533;-59
2022/07/29 03:59:19;;;;;;;3.60;1.80;;;15.30;59.30;;;;;;5098953;28;20452;-58
2022/07/29 04:01:47;;;;;;;6.37;2.20;;;15.30;59.40;;;;;;5090976;28;20477;-59
2022/07/29 04:04:15;;;;;;;4.57;2.00;;;15.30;59.60;;;;;;5097755;28;20467;-59
2022/07/29 04:10:05;;;;;;;2.73;2.43;;;15.30;59.40;;;;;;5137934;27;20575;-61
2022/07/29 04:12:32;;;;;;;2.77;2.10;;;15.30;59.90;;;;;;5139625;27;20461;-61
2022/07/29 04:15:00;;;;;;;2.70;2.50;;;15.30;60.00;;;;;;5139868;27;20466;-58
2022/07/29 04:17:27;;;;;;;4.20;1.90;;;15.30;60.20;;;;;;5136307;27;20972;-58
2022/07/29 04:19:54;;;;;;;3.70;2.10;;;15.30;60.30;;;;;;5130484;27;20497;-60
2022/07/29 04:22:21;;;;;;;4.90;2.03;;;15.30;60.60;;;;;;5115504;27;20449;-57
2022/07/29 04:24:49;;;;;;;4.50;2.07;;;15.30;60.70;;;;;;5130411;28;20528;-58
2022/07/29 04:27:18;;;;;;;3.80;2.30;;;15.30;60.70;;;;;;5123489;27;21059;-58
2022/07/29 04:29:45;;;;;;;3.00;2.73;;;15.30;60.80;;;;;;5121689;28;20522;-58
2022/07/29 04:32:12;;;;;;;3.10;1.77;;;15.30;60.90;;;;;;5113495;27;20860;-58
2022/07/29 04:34:39;;;;;;;4.00;2.47;;;15.40;61.10;;;;;;5111938;28;20469;-58
2022/07/29 04:37:07;;;;;;;2.20;1.87;;;15.40;61.10;;;;;;5119122;28;20822;-58
2022/07/29 04:39:34;;;;;;;3.60;2.20;;;15.40;61.20;;;;;;5112465;28;20544;-58
2022/07/29 04:42:01;;;;;;;4.67;2.03;;;15.40;61.30;;;;;;5110911;28;20499;-57
2022/07/29 04:44:30;;;;;;;3.77;2.07;;;15.40;61.40;;;;;;5111060;28;20540;-58
2022/07/29 04:46:58;;;;;;;2.83;2.10;;;15.40;61.50;;;;;;5111048;28;20527;-58
2022/07/29 04:49:25;;;;;;;2.97;2.10;;;15.40;61.60;;;;;;5112843;28;20556;-58
2022/07/29 04:51:53;;;;;;;5.10;2.27;;;15.40;61.70;;;;;;5114430;28;20473;-58
2022/07/29 04:54:20;;;;;;;8.47;2.57;;;15.40;61.80;;;;;;5120812;28;20476;-57
2022/07/29 04:56:47;;;;;;;5.37;2.50;;;15.50;61.90;;;;;;5128680;28;20461;-58
2022/07/29 04:59:14;;;;;;;3.70;1.90;;;15.50;61.90;;;;;;5129203;28;20448;-58
2022/07/29 05:01:43;;;;;;;3.93;2.13;;;15.50;62.00;;;;;;5120551;28;20445;-57
2022/07/29 05:04:10;;;;;;;3.20;2.23;;;15.50;62.10;;;;;;5113465;28;20537;-59
2022/07/29 05:06:40;;;;;;;2.83;2.10;;;15.50;62.20;;;;;;5112966;28;21011;-57
2022/07/29 05:09:07;;;;;;;2.50;2.03;;;15.60;62.30;;;;;;5114406;28;20538;-57
2022/07/29 05:11:34;;;;;;;4.23;2.43;;;15.60;62.30;;;;;;5113068;28;20518;-59
2022/07/29 05:14:01;;;;;;;3.13;2.27;;;15.60;62.20;;;;;;5113236;28;20453;-57
2022/07/29 05:16:29;;;;;;;4.27;2.70;;;15.70;62.10;;;;;;5112455;28;20489;-57
2022/07/29 05:18:57;;;;;;;3.83;2.07;;;15.80;62.10;;;;;;5111118;28;20445;-57
2022/07/29 05:21:25;;;;;;;4.23;2.47;;;15.90;61.90;;;;;;5114041;28;20952;-56
2022/07/29 05:23:52;;;;;;;3.47;2.60;;;16.00;61.70;;;;;;5114824;28;20552;-56
2022/07/29 05:26:20;;;;;;;4.03;2.63;;;16.10;61.60;;;;;;5096765;28;20462;-57
2022/07/29 05:28:47;;;;;;;11.20;2.67;;;16.20;61.50;;;;;;5096322;28;20474;-57
2022/07/29 05:31:15;;;;;;;6.77;2.60;;;16.30;61.30;;;;;;5096677;28;20454;-56
2022/07/29 05:33:43;;;;;;;5.47;2.50;;;16.40;61.10;;;;;;5096923;28;20521;-56
2022/07/29 05:36:12;;;;;;;5.77;2.53;;;16.60;61.00;;;;;;5096335;28;20470;-56
2022/07/29 05:38:39;;;;;;;9.50;2.73;;;16.70;60.50;;;;;;5096656;28;20447;-56
2022/07/29 05:41:07;;;;;;;8.77;2.40;;;16.90;60.20;;;;;;5096315;28;20442;-56
2022/07/29 05:43:35;;;;;;;5.70;2.80;;;17.00;59.80;;;;;;5095930;28;20450;-56
2022/07/29 05:46:02;;;;;;;8.03;2.77;;;17.10;60.00;;;;;;5096048;28;20473;-56
2022/07/29 05:48:30;;;;;;;3.00;2.43;;;17.20;59.30;;;;;;5096404;28;20536;-56
2022/07/29 05:50:57;;;;;;;6.90;2.40;;;17.20;59.20;;;;;;5096022;28;20450;-57
2022/07/29 05:53:26;;;;;;;8.40;3.00;;;17.20;59.20;;;;;;5097099;28;20954;-58
2022/07/29 05:55:53;;;;;;;3.93;2.40;;;17.20;59.20;;;;;;5105436;28;20471;-56
2022/07/29 05:58:21;;;;;;;4.93;2.40;;;17.20;59.00;;;;;;5116379;27;20445;-57
2022/07/29 06:00:48;;;;;;;4.20;2.50;;;17.10;59.00;;;;;;5102900;28;20463;-58
2022/07/29 06:03:15;;;;;;;9.40;2.90;;;17.10;59.10;;;;;;5106982;28;20438;-59
2022/07/29 06:05:43;;;;;;;5.47;2.87;;;17.10;59.00;;;;;;5115158;28;20445;-59
2022/07/29 06:08:10;;;;;;;5.30;2.80;;;17.20;59.10;;;;;;5101565;28;20486;-58
2022/07/29 06:10:39;;;;;;;3.77;2.13;;;17.20;59.10;;;;;;5095540;28;20446;-59
2022/07/29 06:13:06;;;;;;;5.07;2.90;;;17.10;59.60;;;;;;5095395;28;20465;-59
2022/07/29 06:15:33;;;;;;;4.87;2.73;;;17.10;59.20;;;;;;5095848;28;20442;-59
2022/07/29 06:18:01;;;;;;;8.23;2.40;;;17.10;59.30;;;;;;5096585;28;20454;-58
2022/07/29 06:20:29;;;;;;;4.20;2.60;;;17.20;59.30;;;;;;5098611;28;20498;-58
2022/07/29 06:22:56;;;;;;;4.40;2.73;;;17.40;59.10;;;;;;5102740;28;20549;-58
2022/07/29 06:25:24;;;;;;;3.77;2.60;;;17.50;58.90;;;;;;5100781;28;20478;-58
2022/07/29 06:27:53;;;;;;;3.27;1.97;;;17.60;58.70;;;;;;5096917;28;20490;-59
2022/07/29 06:30:20;;;;;;;13.83;3.47;;;17.80;58.40;;;;;;5115539;28;21111;-57
2022/07/29 06:32:47;;;;;;;4.23;2.90;;;18.10;58.00;;;;;;5113001;28;20533;-57
2022/07/29 06:35:15;;;;;;;7.30;2.43;;;18.40;57.40;;;;;;5111305;28;20445;-59
2022/07/29 06:37:42;;;;;;;5.10;2.60;;;18.60;56.80;;;;;;5096943;28;20470;-59
2022/07/29 06:42:57;;;;;;;4.50;2.53;;;19.10;55.90;;;;;;5094343;28;20805;-58
2022/07/29 06:45:24;;;;;;;4.90;2.40;;;19.20;55.30;;;;;;5094838;28;20499;-58
2022/07/29 06:47:51;;;;;;;4.07;2.80;;;19.20;55.00;;;;;;5094641;28;20989;-57
2022/07/29 06:50:19;;;;;;;5.80;2.67;;;19.20;55.00;;;;;;5094760;28;20566;-58
2022/07/29 06:52:46;;;;;;;5.23;2.70;;;19.20;55.00;;;;;;5097113;28;20510;-58
2022/07/29 06:55:13;;;;;;;10.30;2.50;;;19.40;55.00;;;;;;5108334;28;20530;-66
2022/07/29 06:57:41;;;;;;;8.07;2.50;;;19.50;54.60;;;;;;5104389;28;20462;-57
2022/07/29 07:00:11;;;;;;;6.77;2.87;;;19.70;54.20;;;;;;5103225;28;20497;-57
2022/07/29 07:02:38;;;;;;;5.87;3.50;;;19.80;54.00;;;;;;5101318;28;20455;-59
2022/07/29 07:05:07;;;;;;;5.80;2.90;;;20.00;53.80;;;;;;5094590;28;20491;-57
2022/07/29 07:07:34;;;;;;;4.53;2.60;;;20.00;53.40;;;;;;5094056;28;21004;-58
2022/07/29 07:10:01;;;;;;;4.50;2.53;;;20.00;53.30;;;;;;5094473;28;20539;-57
2022/07/29 07:13:01;;;;;;;9.17;2.87;;;20.10;53.30;;;;;;5094625;28;20452;-55
2022/07/29 07:15:30;;;;;;;5.60;2.87;;;20.30;52.90;;;;;;5087596;28;20475;-57
2022/07/29 07:17:58;;;;;;;4.67;2.40;;;20.50;52.50;;;;;;5094320;28;20443;-57
2022/07/29 07:20:25;;;;;;;4.60;2.40;;;20.70;52.00;;;;;;5093919;28;20891;-56
2022/07/29 07:22:52;;;;;;;6.00;3.17;;;20.80;51.80;;;;;;5093763;28;20524;-58
2022/07/29 07:25:20;;;;;;;4.27;2.67;;;21.00;51.50;;;;;;5093550;28;20541;-58
2022/07/29 07:27:47;;;;;;;4.83;2.90;;;21.10;51.00;;;;;;5094094;28;20495;-58
2022/07/29 07:30:15;;;;;;;8.10;2.50;;;21.30;50.80;;;;;;5093929;28;20476;-57
2022/07/29 07:32:44;;;;;;;5.87;2.43;;;21.50;50.30;;;;;;5093713;28;20895;-58
2022/07/29 07:35:11;;;;;;;4.00;2.70;;;21.60;49.90;;;;;;5093925;28;20474;-57
2022/07/29 07:37:40;;;;;;;4.97;2.40;;;21.60;49.60;;;;;;5093529;28;20972;-57
2022/07/29 07:40:08;;;;;;;7.27;3.60;;;21.60;49.80;;;;;;5093925;28;20441;-58
2022/07/29 07:42:36;;;;;;;5.80;3.17;;;21.60;49.60;;;;;;5093143;28;20449;-58
2022/07/29 07:45:04;;;;;;;3.73;2.27;;;21.60;49.50;;;;;;5093842;28;20447;-58
2022/07/29 07:47:31;;;;;;;5.30;2.40;;;21.50;49.50;;;;;;5094230;28;20541;-57
2022/07/29 07:50:01;;;;;;;5.87;2.90;;;21.50;49.50;;;;;;5093572;28;20481;-57
2022/07/29 07:52:28;;;;;;;6.07;2.37;;;21.40;49.50;;;;;;5093639;28;20452;-57
2022/07/29 07:54:55;;;;;;;6.00;2.87;;;21.20;49.50;;;;;;5093706;28;20499;-56
2022/07/29 07:57:22;;;;;;;6.47;2.90;;;21.00;49.80;;;;;;5093529;28;20845;-58
2022/07/29 08:00:14;;;;;;;6.57;2.60;;;20.80;50.00;;;;;;5093737;28;20440;-56
2022/07/29 08:02:44;;;;;;;7.80;2.80;;;20.80;50.30;;;;;;5074416;28;20950;-58
2022/07/29 08:05:16;;;;;;;4.93;2.63;;;20.80;50.30;;;;;;5094083;28;20431;-58
2022/07/29 08:07:45;;;;;;;6.73;3.10;;;20.80;50.10;;;;;;5093769;28;20466;-58
2022/07/29 08:10:12;;;;;;;5.33;2.67;;;20.80;50.10;;;;;;5093728;28;20562;-60
2022/07/29 08:12:39;;;;;;;9.53;3.37;;;20.80;50.20;;;;;;5094604;28;20877;-57
2022/07/29 08:15:08;;;;;;;5.33;3.00;;;20.80;50.30;;;;;;5094151;28;20928;-58
2022/07/29 08:17:36;;;;;;;6.90;3.03;;;20.80;50.30;;;;;;5093072;28;20495;-59
2022/07/29 08:20:04;;;;;;;5.97;2.87;;;20.90;50.30;;;;;;5094459;28;20497;-59
2022/07/29 08:22:33;;;;;;;5.77;3.30;;;20.90;50.20;;;;;;5093232;28;20511;-59
2022/07/29 08:25:01;;;;;;;7.33;3.07;;;20.80;50.20;;;;;;5092596;28;20446;-59
2022/07/29 08:27:30;;;;;;;5.23;3.00;;;20.70;50.40;;;;;;5093287;28;20884;-59
2022/07/29 08:29:58;;;;;;;8.53;2.57;;;20.60;50.60;;;;;;5094794;28;20481;-60
2022/07/29 08:32:25;;;;;;;5.20;3.20;;;20.50;50.70;;;;;;5100433;28;20967;-57
2022/07/29 08:34:53;;;;;;;9.47;3.40;;;20.50;50.80;;;;;;5103576;28;20865;-60
2022/07/29 08:37:20;;;;;;;4.93;3.30;;;20.40;50.80;;;;;;5093535;28;20538;-59
2022/07/29 08:39:49;;;;;;;4.23;2.80;;;20.40;51.00;;;;;;5093026;28;20507;-60
2022/07/29 08:42:17;;;;;;;5.20;2.90;;;20.50;51.00;;;;;;5093389;28;20566;-59
2022/07/29 08:44:44;;;;;;;4.67;2.80;;;20.60;50.90;;;;;;5092993;28;20447;-59
2022/07/29 08:47:15;;;;;;;6.40;3.23;;;20.70;50.80;;;;;;5093191;28;20650;-60
2022/07/29 08:49:43;;;;;;;6.97;2.80;;;20.90;50.70;;;;;;5093330;28;20549;-61
2022/07/29 08:52:12;;;;;;;3.50;2.50;;;20.90;50.60;;;;;;5095908;28;20882;-59
2022/07/29 08:54:41;;;;;;;9.17;2.90;;;21.00;50.60;;;;;;5100800;28;20451;-59
2022/07/29 08:57:11;;;;;;;4.10;2.77;;;21.00;50.60;;;;;;5113554;28;20549;-58
2022/07/29 08:59:40;;;;;;;7.23;2.90;;;21.00;50.50;;;;;;5109852;28;20443;-59
2022/07/29 09:02:19;;;;;;;5.73;2.70;;;21.00;50.50;;;;;;5103119;28;20934;-59
2022/07/29 09:04:47;;;;;;;4.00;3.37;;;21.10;50.50;;;;;;5096202;28;20459;-57
2022/07/29 09:07:16;;;;;;;4.90;3.07;;;21.20;50.20;;;;;;5097290;28;20510;-59
2022/07/29 09:09:44;;;;;;;6.93;3.70;;;21.40;49.90;;;;;;5096272;28;20522;-58
2022/07/29 09:12:13;;;;;;;3.83;2.80;;;21.70;49.70;;;;;;5097116;28;20450;-59
2022/07/29 09:14:41;;;;;;;3.63;2.70;;;22.00;49.40;;;;;;5098788;28;20944;-59
2022/07/29 09:17:09;;;;;;;5.67;2.60;;;22.20;48.90;;;;;;5100528;28;20545;-59
2022/07/29 09:19:37;;;;;;;7.87;2.60;;;22.50;48.40;;;;;;5106627;28;20539;-59
2022/07/29 09:22:06;;;;;;;3.43;2.70;;;22.70;47.90;;;;;;5110774;28;20452;-59
2022/07/29 09:24:42;;;;;;;9.63;2.90;;;22.90;47.70;;;;;;5125853;28;20869;-58
2022/07/29 09:27:22;;;;;;;5.80;2.50;;;23.00;47.40;;;;;;5120880;28;20471;-58
2022/07/29 09:29:58;;;;;;;4.63;2.73;;;23.00;47.20;;;;;;5104822;28;20558;-59
2022/07/29 09:32:26;;;;;;;6.80;2.80;;;23.10;47.20;;;;;;5105841;28;20432;-59
2022/07/29 09:35:14;;;;;;;7.93;4.20;;;23.20;47.20;;;;;;5109158;28;20447;-59
2022/07/29 09:37:41;;;;;;;8.40;2.67;;;23.20;47.10;;;;;;5109126;28;20487;-60
2022/07/29 09:40:13;;;;;;;3.83;2.63;;;23.10;47.20;;;;;;5120581;28;20978;-59
2022/07/29 09:42:42;;;;;;;8.47;2.97;;;23.00;47.40;;;;;;5127705;28;20449;-57
2022/07/29 09:45:11;;;;;;;4.57;3.17;;;22.90;47.40;;;;;;5126572;28;20456;-59
2022/07/29 09:47:48;;;;;;;5.90;3.07;;;22.90;47.60;;;;;;5126428;22;21012;-56
2022/07/29 09:50:18;;;;;;;6.03;3.53;;;22.80;47.60;;;;;;5074959;28;20471;-57
2022/07/29 09:52:48;;;;;;;5.67;3.50;;;22.80;47.60;;;;;;5075185;28;20439;-56
2022/07/29 09:55:15;;;;;;;5.87;3.90;;;22.70;47.70;;;;;;5074429;28;20511;-58
2022/07/29 09:57:45;;;;;;;3.47;3.10;;;22.60;47.70;;;;;;5075320;28;20570;-58
2022/07/29 10:00:16;;;;;;;7.43;2.80;;;22.60;47.80;;;;;;5075037;28;20447;-57
2022/07/29 10:02:45;;;;;;;3.77;3.07;;;22.70;47.90;;;;;;5074800;28;20525;-58
2022/07/29 10:05:21;;;;;;;8.67;3.40;;;22.80;47.90;;;;;;5074761;28;20508;-57
2022/07/29 10:07:50;;;;;;;5.83;3.20;;;22.90;47.80;;;;;;5074867;28;20469;-58
2022/07/29 10:10:22;;;;;;;4.53;2.70;;;23.20;47.50;;;;;;5074002;28;20475;-57
2022/07/29 10:12:53;;;;;;;4.93;3.53;;;23.40;47.20;;;;;;5074142;28;20454;-57
2022/07/29 10:15:23;;;;;;;8.87;2.70;;;23.60;47.00;;;;;;5073902;28;20988;-57
2022/07/29 10:17:50;;;;;;;3.33;3.03;;;23.70;46.80;;;;;;5074176;28;20538;-57
2022/07/29 10:20:18;;;;;;;5.03;3.20;;;23.70;46.60;;;;;;5074361;28;20879;-56
2022/07/29 10:22:46;;;;;;;4.77;3.00;;;23.90;46.60;;;;;;5074560;28;20514;-56
2022/07/29 10:25:15;;;;;;;5.43;3.03;;;24.10;46.30;;;;;;5074306;28;20461;-58
2022/07/29 10:27:42;;;;;;;7.57;3.00;;;24.20;46.10;;;;;;5074353;28;20954;-58
2022/07/29 10:30:13;;;;;;;4.67;3.30;;;24.30;45.80;;;;;;5074428;28;20551;-55
2022/07/29 10:32:59;;;;;;;4.03;2.93;;;24.40;45.70;;;;;;5074053;28;20490;-57
2022/07/29 10:35:43;;;;;;;6.80;3.00;;;24.40;45.60;;;;;;5074132;28;20526;-59
2022/07/29 10:38:31;;;;;;;3.57;2.53;;;24.50;45.70;;;;;;5073730;28;20548;-57
2022/07/29 10:41:27;;;;;;;4.87;2.80;;;24.40;45.60;;;;;;5073841;28;20431;-57
2022/07/29 10:43:59;;;;;;;6.27;3.30;;;24.40;45.50;;;;;;5074123;28;20494;-56
2022/07/29 10:46:28;;;;;;;4.50;3.10;;;24.20;45.80;;;;;;5072980;28;20430;-55
2022/07/29 10:49:15;;;;;;;3.83;2.90;;;24.00;45.90;;;;;;5073816;28;20436;-57
2022/07/29 10:52:04;;;;;;;4.43;2.90;;;24.10;46.30;;;;;;5074174;28;20480;-55
2022/07/29 10:54:50;;;;;;;5.00;3.20;;;24.20;46.10;;;;;;5071134;28;20492;-55
2022/07/29 10:57:28;;;;;;;8.50;3.60;;;24.10;45.90;;;;;;5073818;28;20459;-55
2022/07/29 11:00:33;;;;;;;4.23;2.90;;;24.10;46.00;;;;;;5073526;28;20449;-56
2022/07/29 11:03:01;;;;;;;8.30;3.10;;;23.90;46.10;;;;;;5064078;28;20456;-56
2022/07/29 11:05:31;;;;;;;3.47;2.50;;;23.90;46.30;;;;;;5073832;28;20882;-56
2022/07/29 11:08:23;;;;;;;4.67;2.80;;;23.80;46.40;;;;;;5073205;28;20576;-56
2022/07/29 11:10:51;;;;;;;6.13;3.30;;;23.80;46.50;;;;;;5073080;28;20480;-55
2022/07/29 11:13:47;;;;;;;9.23;3.07;;;23.90;46.60;;;;;;5073579;28;20448;-56
2022/07/29 11:16:14;;;;;;;2.87;2.57;;;23.90;46.60;;;;;;5073461;28;20452;-55
2022/07/29 11:19:15;;;;;;;5.63;2.97;;;24.10;46.70;;;;;;5073003;28;20499;-55
2022/07/29 11:21:46;;;;;;;7.30;3.30;;;24.10;46.70;;;;;;5072834;28;20448;-54
2022/07/29 11:24:14;;;;;;;6.47;3.07;;;24.00;46.80;;;;;;5072618;28;21015;-56
2022/07/29 11:26:42;;;;;;;5.53;3.57;;;23.90;46.90;;;;;;5072266;28;20985;-56
2022/07/29 11:29:20;;;;;;;3.73;2.93;;;23.90;47.10;;;;;;5072819;28;20534;-56
2022/07/29 11:31:51;;;;;;;7.30;3.53;;;24.00;47.30;;;;;;5072712;28;20466;-57
2022/07/29 11:34:24;;;;;;;5.70;2.77;;;24.00;47.20;;;;;;5072584;28;20448;-58
2022/07/29 11:37:22;;;;;;;6.23;3.03;;;24.10;47.30;;;;;;5072875;28;20483;-56
2022/07/29 11:40:14;;;;;;;5.67;2.87;;;24.10;47.30;;;;;;5072722;28;20435;-55
2022/07/29 11:42:43;;;;;;;5.13;2.80;;;24.10;47.50;;;;;;5073053;28;20851;-57
2022/07/29 11:45:13;;;;;;;4.73;2.93;;;24.10;47.30;;;;;;5072224;28;20560;-56
2022/07/29 11:47:42;;;;;;;5.00;3.30;;;24.20;47.30;;;;;;5072538;28;20469;-54
2022/07/29 11:50:13;;;;;;;5.30;2.87;;;24.30;47.40;;;;;;5071857;28;20535;-56
2022/07/29 11:52:45;;;;;;;4.80;3.23;;;24.40;47.30;;;;;;5072131;28;20979;-55
2022/07/29 11:55:14;;;;;;;6.10;3.30;;;24.50;47.20;;;;;;5072464;28;20456;-57
2022/07/29 11:57:48;;;;;;;4.97;2.80;;;24.60;47.10;;;;;;5072497;28;20464;-57
2022/07/29 12:00:24;;;;;;;4.43;2.63;;;24.70;46.90;;;;;;5072228;28;20432;-59
2022/07/29 12:02:52;;;;;;;3.87;3.07;;;24.70;46.80;;;;;;5072114;28;20441;-60
2022/07/29 12:05:21;;;;;;;7.80;3.20;;;24.70;46.70;;;;;;5052378;28;20443;-59
2022/07/29 12:07:49;;;;;;;3.60;2.77;;;24.90;46.80;;;;;;5052332;28;20479;-58
2022/07/29 12:10:17;;;;;;;3.50;2.63;;;25.00;46.60;;;;;;5052305;28;20440;-60
2022/07/29 12:12:51;;;;;;;5.30;3.00;;;25.10;46.30;;;;;;5052990;28;20445;-59
2022/07/29 12:15:20;;;;;;;3.00;2.50;;;25.20;46.10;;;;;;5069956;28;20448;-59
2022/07/29 12:17:48;;;;;;;5.20;3.07;;;25.30;46.00;;;;;;5072535;28;20511;-58
2022/07/29 12:20:24;;;;;;;4.37;2.90;;;25.40;45.80;;;;;;5072073;28;20451;-59
2022/07/29 12:22:54;;;;;;;7.43;2.60;;;25.60;45.70;;;;;;5072037;28;20440;-58
2022/07/29 12:25:22;;;;;;;5.60;3.20;;;25.80;45.30;;;;;;5071422;28;20441;-57
2022/07/29 12:27:59;;;;;;;4.20;2.73;;;25.80;45.20;;;;;;5072874;28;20614;-57
2022/07/29 12:30:38;;;;;;;3.43;2.73;;;26.00;45.00;;;;;;5073922;28;20447;-56
2022/07/29 12:33:13;;;;;;;8.00;2.77;;;26.20;45.20;;;;;;5076322;28;20456;-59
2022/07/29 12:35:41;;;;;;;4.57;2.83;;;26.30;44.20;;;;;;5056594;28;20447;-58
2022/07/29 12:38:11;;;;;;;4.57;2.60;;;26.40;44.00;;;;;;5057880;28;20460;-57
2022/07/29 12:40:39;;;;;;;4.53;3.07;;;26.50;43.80;;;;;;5076010;28;20958;-58
2022/07/29 12:43:07;;;;;;;4.47;2.63;;;26.70;43.60;;;;;;5076465;28;20458;-58
2022/07/29 12:45:34;;;;;;;6.90;3.10;;;26.80;43.30;;;;;;5075986;28;20469;-58
2022/07/29 12:48:02;;;;;;;5.10;3.07;;;27.00;43.10;;;;;;5076593;28;20561;-58
2022/07/29 12:50:31;;;;;;;4.87;2.40;;;27.00;42.80;;;;;;5076470;28;20451;-57
2022/07/29 12:53:12;;;;;;;5.90;2.70;;;27.00;42.70;;;;;;5076517;28;20980;-57
2022/07/29 12:55:41;;;;;;;4.37;2.77;;;27.00;42.50;;;;;;5074894;28;20917;-58
2022/07/29 12:58:08;;;;;;;9.00;3.40;;;26.90;42.90;;;;;;5074891;28;20984;-58
2022/07/29 13:00:35;;;;;;;4.53;3.03;;;26.90;42.20;;;;;;5075942;28;20564;-58
2022/07/29 13:03:02;;;;;;;5.20;2.33;;;26.90;42.00;;;;;;5076179;28;20450;-58
2022/07/29 13:05:41;;;;;;;7.87;3.00;;;26.90;41.90;;;;;;5076037;28;20450;-58
2022/07/29 13:08:14;;;;;;;3.70;2.70;;;26.80;41.70;;;;;;5075255;28;20497;-56
2022/07/29 13:10:42;;;;;;;5.83;2.20;;;26.90;41.70;;;;;;5075403;28;20456;-56